Snoqualmie River: Middle Fork station

back to: Snoqualmie river
Middle Fork station Summary - (NOAA Hydrograph: TANW1)
Latest reading:
Fri10/20 02:15 am 6.67 ft 4506 cfs (-376/hr)
Past 24hr max:
Thu10/19 09:15 pm 7.38 ft 5751 cfs
Forecasted crests: (published Thu 10/19/17 06:20 pm)
Sun10/22 05:00 am 12.17 ft 18934 cfs

Middle Fork station Details

Latest Readings

Last 100 Readings:
Fri10/20 02:15 am 6.67 ft 4506 cfs
Fri10/20 02:00 am 6.73 ft 4600 cfs
Fri10/20 01:45 am 6.76 ft 4649 cfs
Fri10/20 01:30 am 6.84 ft 4780 cfs
Fri10/20 01:15 am 6.84 ft 4780 cfs
Fri10/20 01:00 am 6.97 ft 4996 cfs
Fri10/20 12:45 am 6.92 ft 4911 cfs
Fri10/20 12:30 am 6.97 ft 4996 cfs
Fri10/20 12:15 am 7.03 ft 5098 cfs
Fri10/20 12:00 am 7.08 ft 5183 cfs
Thu10/19 11:45 pm 7.03 ft 5098 cfs
Thu10/19 11:30 pm 7.12 ft 5255 cfs
Thu10/19 11:15 pm 7.12 ft 5255 cfs
Thu10/19 11:00 pm 7.19 ft 5386 cfs
Thu10/19 10:45 pm 7.19 ft 5386 cfs
Thu10/19 10:30 pm 7.29 ft 5574 cfs
Thu10/19 10:15 pm 7.26 ft 5518 cfs
Thu10/19 10:00 pm 7.29 ft 5574 cfs
Thu10/19 09:45 pm 7.32 ft 5633 cfs
Thu10/19 09:30 pm 7.34 ft 5672 cfs
Thu10/19 09:15 pm 7.38 ft 5751 cfs
Thu10/19 09:00 pm 7.33 ft 5653 cfs
Thu10/19 08:45 pm 7.36 ft 5712 cfs
Thu10/19 08:30 pm 7.34 ft 5672 cfs
Thu10/19 08:15 pm 7.36 ft 5712 cfs
Thu10/19 08:00 pm 7.35 ft 5692 cfs
Thu10/19 07:45 pm 7.36 ft 5712 cfs
Thu10/19 07:30 pm 7.34 ft 5672 cfs
Thu10/19 07:15 pm 7.31 ft 5613 cfs
Thu10/19 07:00 pm 7.35 ft 5692 cfs
Thu10/19 06:45 pm 7.34 ft 5672 cfs
Thu10/19 06:30 pm 7.3 ft 5594 cfs
Thu10/19 06:15 pm 7.36 ft 5712 cfs
Thu10/19 06:00 pm 7.32 ft 5633 cfs
Thu10/19 05:45 pm 7.34 ft 5672 cfs
Thu10/19 05:30 pm 7.27 ft 5536 cfs
Thu10/19 05:15 pm 7.23 ft 5461 cfs
Thu10/19 05:00 pm 7.25 ft 5499 cfs
Thu10/19 04:45 pm 7.18 ft 5367 cfs
Thu10/19 04:30 pm 7.22 ft 5442 cfs
Thu10/19 04:15 pm 7.17 ft 5349 cfs
Thu10/19 04:00 pm 7.09 ft 5200 cfs
Thu10/19 03:45 pm 7.1 ft 5217 cfs
Thu10/19 03:30 pm 7.06 ft 5149 cfs
Thu10/19 03:15 pm 7.07 ft 5166 cfs
Thu10/19 03:00 pm 7.02 ft 5081 cfs
Thu10/19 02:45 pm 7.09 ft 5200 cfs
Thu10/19 02:30 pm 7.01 ft 5064 cfs
Thu10/19 02:15 pm 7.03 ft 5098 cfs
Thu10/19 02:00 pm 6.97 ft 4996 cfs
Thu10/19 01:45 pm 7.02 ft 5081 cfs
Thu10/19 01:30 pm 6.97 ft 4996 cfs
Thu10/19 01:15 pm 7.02 ft 5081 cfs
Thu10/19 01:00 pm 6.97 ft 4996 cfs
Thu10/19 12:45 pm 6.99 ft 5030 cfs
Thu10/19 12:30 pm 7.0 ft 5047 cfs
Thu10/19 12:15 pm 6.96 ft 4979 cfs
Thu10/19 12:00 pm 7.04 ft 5115 cfs
Thu10/19 11:45 am 6.96 ft 4979 cfs
Thu10/19 11:30 am 7.02 ft 5081 cfs
Thu10/19 11:15 am 7.01 ft 5064 cfs
Thu10/19 11:00 am 7.06 ft 5149 cfs
Thu10/19 10:45 am 7.09 ft 5200 cfs
Thu10/19 10:30 am 7.11 ft 5236 cfs
Thu10/19 10:15 am 7.11 ft 5236 cfs
Thu10/19 10:00 am 7.15 ft 5311 cfs
Thu10/19 09:45 am 7.11 ft 5236 cfs
Thu10/19 09:30 am 7.16 ft 5330 cfs
Thu10/19 09:15 am 7.2 ft 5405 cfs
Thu10/19 09:00 am 7.26 ft 5518 cfs
Thu10/19 08:45 am 7.18 ft 5367 cfs
Thu10/19 08:30 am 7.26 ft 5518 cfs
Thu10/19 08:15 am 7.27 ft 5536 cfs
Thu10/19 08:00 am 7.26 ft 5518 cfs
Thu10/19 07:45 am 7.29 ft 5574 cfs
Thu10/19 07:30 am 7.21 ft 5424 cfs
Thu10/19 07:15 am 7.23 ft 5461 cfs
Thu10/19 07:00 am 7.2 ft 5405 cfs
Thu10/19 06:45 am 7.26 ft 5518 cfs
Thu10/19 06:30 am 7.2 ft 5405 cfs
Thu10/19 06:15 am 7.21 ft 5424 cfs
Thu10/19 06:00 am 7.2 ft 5405 cfs
Thu10/19 05:45 am 7.12 ft 5255 cfs
Thu10/19 05:30 am 7.06 ft 5149 cfs
Thu10/19 05:15 am 7.02 ft 5081 cfs
Thu10/19 05:00 am 6.95 ft 4962 cfs
Thu10/19 04:45 am 6.88 ft 4845 cfs
Thu10/19 04:30 am 6.73 ft 4600 cfs
Thu10/19 04:15 am 6.69 ft 4537 cfs
Thu10/19 04:00 am 6.58 ft 4366 cfs
Thu10/19 03:45 am 6.46 ft 4183 cfs
Thu10/19 03:30 am 6.23 ft 3847 cfs
Thu10/19 03:15 am 6.1 ft 3664 cfs
Thu10/19 03:00 am 5.93 ft 3434 cfs
Thu10/19 02:45 am 5.81 ft 3278 cfs
Thu10/19 02:30 am 5.62 ft 3040 cfs
Thu10/19 02:15 am 5.48 ft 2873 cfs
Thu10/19 02:00 am 5.34 ft 2711 cfs
Thu10/19 01:45 am 5.19 ft 2543 cfs
Thu10/19 01:30 am 4.99 ft 2332 cfs

Latest Forecasts

Currently Forecasted Readings:
Thu10/19 11:00 pm 7.65 ft 6297 cfs
Fri10/20 05:00 am 7.01 ft 5064 cfs
Fri10/20 11:00 am 6.67 ft 4511 cfs
Fri10/20 05:00 pm 6.44 ft 4155 cfs
Fri10/20 11:00 pm 6.06 ft 3608 cfs
Sat10/21 05:00 am 5.52 ft 2915 cfs
Sat10/21 11:00 am 5.16 ft 2513 cfs
Sat10/21 05:00 pm 5.98 ft 3503 cfs
Sat10/21 11:00 pm 11.51 ft 16694 cfs
Sun10/22 05:00 am 12.17 ft 18934 cfs
Sun10/22 11:00 am 9.45 ft 10545 cfs
Sun10/22 05:00 pm 8.04 ft 7115 cfs
Sun10/22 11:00 pm 7.35 ft 5686 cfs
Mon10/23 05:00 am 6.61 ft 4413 cfs
Mon10/23 11:00 am 5.88 ft 3373 cfs
Mon10/23 05:00 pm 5.27 ft 2636 cfs
Mon10/23 11:00 pm 4.81 ft 2154 cfs
Tue10/24 05:00 am 4.42 ft 1792 cfs
Tue10/24 11:00 am 4.14 ft 1566 cfs
Tue10/24 05:00 pm 3.92 ft 1395 cfs
Tue10/24 11:00 pm 3.73 ft 1259 cfs
Wed10/25 05:00 am 3.57 ft 1151 cfs
Wed10/25 11:00 am 3.44 ft 1070 cfs
Wed10/25 05:00 pm 3.28 ft 972 cfs
Wed10/25 11:00 pm 3.14 ft 897 cfs
Thu10/26 05:00 am 3.02 ft 833 cfs
Thu10/26 11:00 am 2.91 ft 774 cfs
Thu10/26 05:00 pm 2.8 ft 721 cfs
Thu10/26 11:00 pm 2.7 ft 673 cfs
Fri10/27 05:00 am 2.6 ft 629 cfs
Fri10/27 11:00 am 2.5 ft 589 cfs
Fri10/27 05:00 pm 2.42 ft 553 cfs
Fri10/27 11:00 pm 2.37 ft 536 cfs
Sat10/28 05:00 am 2.25 ft 492 cfs
Sat10/28 11:00 am 2.19 ft 469 cfs
Sat10/28 05:00 pm 2.17 ft 459 cfs
Sat10/28 11:00 pm 2.85 ft 745 cfs
Sun10/29 05:00 am 3.23 ft 944 cfs

Snoqualmie River flood gauge data supplied by the
National Weather Service Northwest River Forecast Center.

Sign up for Floodzilla alerts.